Terminal Aerodrome Forecast
Issued by NWS

Home | Current Version | Previous Version | Graphics & Text | Print | Product List | Glossary On
Versions: 1 2 3 4 5 6 7 8 9 10 11 12 13 14 15 16 17 18
000
FTUS43 KICT 260500
TAFHUT
TAF
KHUT 260520Z 2606/2706 35014KT P6SM VCTS FEW050 SCT080 BKN100CB
     FM260700 03014KT P6SM SCT100
     FM261500 17009KT P6SM FEW200
     FM270100 14007KT P6SM SCT250=

USA.gov is the U.S. government's official web portal to all federal, state and local government web resources and services.